Flight Track Log - Related Links

Times and Time Zones

All times are in EDT time to prevent confusion due to time zone crossing. See the SWA2433 flight status page for this flight to view local times or setup timezone preferences in your user account.

Time Position Orientation Groundspeed Altitude Reporting Facility
EDT Latitude Longitude Course Direction KTS MPH feet Rate Location/Type
Fri 04:19:11 PM 29.5833 -98.3706 61° Northeast 221 254 4,400  Level Houston Center
Fri 04:20:13 PM 29.6178 -98.2914 63° Northeast 293 337 7,100 3,290 Climbing Houston Center
Fri 04:21:15 PM 29.7067 -98.2881 North 304 350 11,200 3,048 Climbing Houston Center
Fri 04:22:17 PM 29.7992 -98.3136 347° North 345 397 13,400 2,565 Climbing Houston Center
Fri 04:23:19 PM 29.9094 -98.3428 347° North 377 434 16,500 3,097 Climbing Houston Center
Fri 04:24:21 PM 30.0153 -98.3686 348° North 388 447 19,800 3,145 Climbing Houston Center
Fri 04:25:23 PM 30.1319 -98.3908 351° North 397 457 23,000 2,592 Climbing Houston Center
Fri 04:26:26 PM 30.2469 -98.3725 North 414 476 25,200 2,208 Climbing Houston Center
Fri 04:27:28 PM 30.3658 -98.3561 North 431 496 27,600 2,177 Climbing Houston Center
Fri 04:28:30 PM 30.4872 -98.3378 North 433 498 29,700 1,645 Climbing Houston Center
Fri 04:29:32 PM 30.6078 -98.3192 North 432 497 31,000 629 Climbing Houston Center
Fri 04:30:34 PM 30.7306 -98.3019 North 435 501 31,000  Level Houston Center
Fri 04:31:36 PM 30.8514 -98.2839 North 433 498 31,000  Level Houston Center
Fri 04:32:38 PM 30.9911 -98.2625 North 431 496 31,000 -240 Level Houston Center
Fri 04:33:41 PM 31.1100 -98.2364 11° North 432 497 30,500 -720 Descending Houston Center
Fri 04:34:43 PM 31.2275 -98.1981 16° North 425 489 29,500 -738 Descending Fort Worth Center
Fri 04:35:43 PM 31.3425 -98.1600 16° North 425 489 29,000 -250 Descending Fort Worth Center
Fri 04:36:43 PM 31.4597 -98.1100 20° North 425 489 29,000  Level Fort Worth Center
Fri 04:37:43 PM 31.5728 -98.0450 26° Northeast 440 506 29,000 -550 Level Fort Worth Center
Fri 04:38:43 PM 31.6858 -97.9747 28° Northeast 452 520 27,900 -1,900 Descending Fort Worth Center
Fri 04:39:43 PM 31.7864 -97.9144 27° Northeast 450 518 25,200 -2,850 Descending Fort Worth Center
Fri 04:40:43 PM 31.9036 -97.8464 26° Northeast 458 527 22,200 -2,850 Descending Fort Worth Center
Fri 04:41:43 PM 32.0269 -97.7761 26° Northeast 449 517 19,500 -2,450 Descending Fort Worth Center
Fri 04:42:43 PM 32.1231 -97.7175 27° Northeast 439 505 17,300 -2,500 Descending Fort Worth Center
Fri 04:43:43 PM 32.2381 -97.6467 28° Northeast 427 491 14,500 -2,550 Descending Fort Worth Center
Fri 04:44:43 PM 32.3300 -97.5903 27° Northeast 421 484 12,200 -1,650 Descending Fort Worth Center
Fri 04:45:43 PM 32.4344 -97.5292 26° Northeast 398 458 11,200 -600 Descending Fort Worth Center
Fri 04:46:43 PM 32.5014 -97.4675 38° Northeast 354 407 11,000 -100 Descending Fort Worth Center
Fri 04:47:43 PM 32.5725 -97.3864 44° Northeast 320 368 11,000  Level Fort Worth Center
Fri 04:48:43 PM 32.6286 -97.3172 46° Northeast 315 362 11,000  Level Fort Worth Center
Fri 04:49:43 PM 32.6956 -97.2333 47° Northeast 310 357 11,000  Level Fort Worth Center
Fri 04:50:43 PM 32.7517 -97.1739 42° Northeast 305 351 11,000 -400 Level Fort Worth Center
Fri 04:51:43 PM 32.8269 -97.1761 359° North 259 298 10,200 -1,050 Descending Fort Worth Center
Fri 04:52:43 PM 32.8958 -97.1758 360° North 245 282 8,900 -1,309 Descending Fort Worth Center
Fri 04:53:33 PM 32.9167 -97.1167 67° East 236 272 7,800 -1,255 Descending Dallas / Fort Worth TRACON
Fri 04:54:33 PM 32.9333 -97.0500 73° East 217 250 6,600 -1,263 Descending Dallas / Fort Worth TRACON
Fri 04:55:27 PM 32.9333 -97.0000 90° East 179 206 5,400 -1,526 Descending Dallas / Fort Worth TRACON
Fri 04:56:27 PM 32.9333 -96.9500 90° East 143 165 3,700 -1,700 Descending Dallas / Fort Worth TRACON
Fri 04:57:27 PM 32.9000 -96.9167 140° Southeast 134 154 2,000 -1,289 Descending Dallas / Fort Worth TRACON
Fri 04:58:28 PM 32.8833 -96.8833 121° Southeast 131 151 1,100 -885 Descending Dallas / Fort Worth TRACON
Fri 05:00:00 PM 32.8471 -96.8518 108° East  Level Estimated
Fri 05:07:00 PM 32.8471 -96.8518 108° East  Level Estimated

Login

Don't have an account? Register now (free) for customized features, flight alerts, and more!